Time;durP1;ratioP1;P1;durP2;ratioP2;P2;SDS_P1;SDS_P2;PMS_P1;PMS_P2;Temp;Humidity;BMP_temperature;BMP_pressure;BME280_temperature;BME280_humidity;BME280_pressure;Samples;Min_cycle;Max_cycle;Signal;HPM_P1;HPM_P2
2022/01/22 00:02:29;;;;;;;24.17;10.15;;;;;;;3.95;100.00;103495.06;5267678;28;20020;-77
2022/01/22 00:05:00;;;;;;;26.33;9.75;;;;;;;4.06;100.00;103491.03;5275732;28;20473;-77
2022/01/22 00:07:30;;;;;;;31.23;9.50;;;;;;;4.07;100.00;103487.50;5271959;28;20027;-76
2022/01/22 00:10:06;;;;;;;33.25;9.93;;;;;;;4.08;100.00;103483.91;5272113;28;20103;-76
2022/01/22 00:15:12;;;;;;;25.02;11.00;;;;;;;4.13;100.00;103489.91;5275605;28;20504;-76
2022/01/22 00:17:43;;;;;;;26.90;9.93;;;;;;;4.11;100.00;103483.75;5269665;28;20035;-76
2022/01/22 00:20:16;;;;;;;26.13;9.60;;;;;;;4.09;100.00;103479.44;5266071;28;20056;-76
2022/01/22 00:22:47;;;;;;;40.50;10.75;;;;;;;4.07;100.00;103481.31;5267785;28;20045;-76
2022/01/22 00:25:21;;;;;;;27.90;12.52;;;;;;;4.04;100.00;103476.97;5266657;28;20024;-76
2022/01/22 00:27:51;;;;;;;21.45;10.02;;;;;;;4.05;100.00;103478.69;5268862;28;20099;-76
2022/01/22 00:30:24;;;;;;;24.67;10.32;;;;;;;4.04;100.00;103476.97;5265964;28;20074;-76
2022/01/22 00:32:55;;;;;;;21.63;9.82;;;;;;;4.04;100.00;103473.44;5272107;28;20024;-75
2022/01/22 00:35:26;;;;;;;18.48;9.77;;;;;;;4.07;100.00;103470.69;5270250;28;20042;-76
2022/01/22 00:37:56;;;;;;;25.35;9.85;;;;;;;4.09;100.00;103458.19;5264895;28;20020;-76
2022/01/22 00:40:27;;;;;;;19.20;9.95;;;;;;;4.10;100.00;103457.25;5266800;28;20032;-76
2022/01/22 00:42:58;;;;;;;20.83;10.60;;;;;;;4.10;100.00;103451.94;5265304;28;20028;-75
2022/01/22 00:45:29;;;;;;;25.13;10.30;;;;;;;4.11;100.00;103453.66;5267269;28;20020;-75
2022/01/22 00:47:59;;;;;;;27.30;10.63;;;;;;;4.13;100.00;103452.69;5270515;28;20023;-75
2022/01/22 00:50:30;;;;;;;23.98;9.90;;;;;;;4.15;100.00;103450.84;5273665;28;20028;-76
2022/01/22 00:53:00;;;;;;;22.67;9.63;;;;;;;4.20;100.00;103441.81;5279052;28;20028;-75
2022/01/22 00:55:31;;;;;;;30.75;9.52;;;;;;;4.21;100.00;103439.09;5277159;28;20064;-76
2022/01/22 00:58:01;;;;;;;26.73;10.05;;;;;;;4.23;100.00;103453.19;5271117;27;20031;-75
2022/01/22 01:00:32;;;;;;;22.27;9.80;;;;;;;4.23;100.00;103447.03;5271643;28;20497;-75
2022/01/22 01:03:03;;;;;;;18.48;9.90;;;;;;;4.26;100.00;103445.09;5276968;28;20020;-75
2022/01/22 01:05:34;;;;;;;21.00;10.13;;;;;;;4.25;100.00;103446.03;5263568;28;20023;-74
2022/01/22 01:08:05;;;;;;;23.83;9.65;;;;;;;4.26;100.00;103452.19;5264853;28;20074;-74
2022/01/22 01:10:35;;;;;;;27.00;9.98;;;;;;;4.24;100.00;103452.28;5267001;28;20051;-74
2022/01/22 01:13:06;;;;;;;24.55;10.65;;;;;;;4.22;100.00;103461.22;5285064;28;20030;-74
2022/01/22 01:15:42;;;;;;;27.63;10.52;;;;;;;4.24;100.00;103454.06;5266152;28;20495;-75
2022/01/22 01:34:41;;;;;;;26.42;11.00;;;;;;;4.16;100.00;103451.69;5282655;28;20116;-75
2022/01/22 01:37:15;;;;;;;23.35;10.18;;;;;;;4.15;100.00;103457.94;5283831;28;20038;-75
2022/01/22 01:39:51;;;;;;;33.38;12.57;;;;;;;4.15;100.00;103464.13;5270510;28;20027;-75
2022/01/22 01:45:11;;;;;;;26.15;10.18;;;;;;;4.14;100.00;103461.53;5270617;28;20461;-75
2022/01/22 01:47:44;;;;;;;21.33;10.02;;;;;;;4.20;100.00;103468.41;5283390;28;20102;-75
2022/01/22 01:50:15;;;;;;;26.92;10.02;;;;;;;4.24;100.00;103460.25;5274670;28;20020;-74
2022/01/22 01:52:51;;;;;;;22.27;10.68;;;;;;;4.26;100.00;103462.81;5264475;28;20416;-75
2022/01/22 01:55:34;;;;;;;26.00;10.65;;;;;;;4.20;100.00;103463.94;5283035;28;20035;-74
2022/01/22 01:58:04;;;;;;;22.85;10.40;;;;;;;4.20;100.00;103468.41;5277899;28;20050;-75
2022/01/22 02:00:35;;;;;;;26.05;12.98;;;;;;;4.23;100.00;103469.16;5263596;28;20027;-74
2022/01/22 02:03:06;;;;;;;21.20;10.90;;;;;;;4.22;100.00;103466.53;5273079;28;20477;-75
2022/01/22 02:05:38;;;;;;;23.90;11.35;;;;;;;4.20;100.00;103468.41;5272858;28;20051;-74
2022/01/22 02:08:09;;;;;;;21.00;11.02;;;;;;;4.23;100.00;103460.31;5277769;28;20427;-75
2022/01/22 02:10:45;;;;;;;24.63;11.45;;;;;;;4.22;100.00;103459.44;5284800;28;20366;-75
2022/01/22 02:24:57;;;;;;;35.47;13.57;;;;;;;4.25;100.00;103461.97;5274561;28;20016;-75
2022/01/22 02:27:27;;;;;;;31.67;13.70;;;;;;;4.27;100.00;103448.63;5288842;28;20076;-75
2022/01/22 02:29:58;;;;;;;22.58;11.82;;;;;;;4.29;100.00;103457.41;5288399;28;20028;-76
2022/01/22 02:32:52;;;;;;;31.27;13.73;;;;;;;4.28;100.00;103456.53;5288480;28;20020;-76
2022/01/22 02:38:15;;;;;;;29.55;13.10;;;;;;;4.28;100.00;103451.22;5288363;28;20485;-75
2022/01/22 02:40:48;;;;;;;27.80;13.15;;;;;;;4.28;100.00;103456.53;5276965;28;20020;-76
2022/01/22 02:43:20;;;;;;;28.08;12.25;;;;;;;4.29;100.00;103458.25;5273122;28;20372;-76
2022/01/22 02:45:52;;;;;;;34.53;13.32;;;;;;;4.31;100.00;103451.06;5274837;28;20030;-75
2022/01/22 02:48:23;;;;;;;32.25;14.05;;;;;;;4.38;100.00;103457.91;5276776;28;20403;-73
2022/01/22 02:50:54;;;;;;;24.65;12.77;;;;;;;4.39;100.00;103454.31;5287615;28;20024;-73
2022/01/22 02:53:24;;;;;;;31.55;14.18;;;;;;;4.36;100.00;103446.44;5283508;28;20030;-74
2022/01/22 02:55:55;;;;;;;30.20;14.00;;;;;;;4.32;100.00;103457.28;5287354;27;20357;-74
2022/01/22 02:58:26;;;;;;;34.65;13.77;;;;;;;4.30;100.00;103459.13;5287742;28;20050;-75
2022/01/22 03:00:57;;;;;;;31.20;14.70;;;;;;;4.29;100.00;103460.06;5287771;28;20043;-74
2022/01/22 03:03:28;;;;;;;32.25;15.18;;;;;;;4.31;100.00;103456.41;5276158;28;20046;-75
2022/01/22 03:06:01;;;;;;;29.50;13.50;;;;;;;4.35;100.00;103452.69;5266228;28;20024;-74
2022/01/22 03:08:32;;;;;;;32.67;14.30;;;;;;;4.37;100.00;103450.84;5266977;28;20101;-74
2022/01/22 03:11:07;;;;;;;28.95;14.50;;;;;;;4.38;100.00;103454.38;5273679;28;20034;-74
2022/01/22 03:16:26;;;;;;;30.35;14.75;;;;;;;4.35;100.00;103450.03;5265180;28;20027;-74
2022/01/22 03:19:05;;;;;;;29.45;14.63;;;;;;;4.35;100.00;103451.81;5280163;28;20035;-74
2022/01/22 03:21:40;;;;;;;37.47;14.68;;;;;;;4.30;100.00;103449.34;5266783;28;20035;-74
2022/01/22 03:29:51;;;;;;;34.60;15.50;;;;;;;4.32;100.00;103454.63;5273794;28;20466;-74
2022/01/22 03:32:23;;;;;;;40.10;17.63;;;;;;;4.35;100.00;103454.50;5278547;28;20023;-74
2022/01/22 03:34:57;;;;;;;37.45;16.45;;;;;;;4.32;100.00;103457.28;5281457;28;20122;-74
2022/01/22 03:37:27;;;;;;;35.47;16.83;;;;;;;4.31;100.00;103461.72;5287934;28;20432;-74
2022/01/22 03:39:58;;;;;;;31.30;16.55;;;;;;;4.34;100.00;103452.75;5286889;28;20210;-74
2022/01/22 03:42:29;;;;;;;37.47;17.10;;;;;;;4.34;100.00;103461.59;5275101;28;20120;-74
2022/01/22 03:44:59;;;;;;;47.22;17.23;;;;;;;4.35;100.00;103460.66;5271899;28;20047;-74
2022/01/22 03:47:30;;;;;;;36.63;16.02;;;;;;;4.34;100.00;103455.41;5287089;28;20100;-73
2022/01/22 03:50:00;;;;;;;37.83;17.83;;;;;;;4.31;100.00;103459.06;5279174;28;20051;-74
2022/01/22 03:52:31;;;;;;;39.42;16.85;;;;;;;4.30;100.00;103459.13;5265768;28;20453;-74
2022/01/22 03:55:03;;;;;;;45.22;18.48;;;;;;;4.29;100.00;103458.25;5278529;28;20419;-74
2022/01/22 03:57:34;;;;;;;47.30;17.92;;;;;;;4.29;100.00;103460.06;5286475;28;20027;-73
2022/01/22 04:00:06;;;;;;;40.78;17.23;;;;;;;4.30;100.00;103456.47;5276678;27;20161;-73
2022/01/22 04:05:26;;;;;;;39.60;18.33;;;;;;;4.28;100.00;103447.69;5279574;28;20046;-73
2022/01/22 04:08:18;;;;;;;45.53;19.90;;;;;;;4.30;100.00;103452.00;5278945;28;20048;-74
2022/01/22 04:10:49;;;;;;;51.30;19.98;;;;;;;4.34;100.00;103452.75;5265024;28;20040;-73
2022/01/22 04:13:22;;;;;;;43.65;20.00;;;;;;;4.32;100.00;103441.34;5276210;28;20124;-73
2022/01/22 04:15:53;;;;;;;43.45;18.50;;;;;;;4.32;100.00;103439.53;5280271;27;20102;-73
2022/01/22 04:29:39;;;;;;;47.05;19.92;;;;;;;4.36;100.00;103440.25;5273761;28;20024;-74
2022/01/22 04:32:09;;;;;;;44.40;20.33;;;;;;;4.36;100.00;103448.25;5278588;28;20440;-73
2022/01/22 04:34:40;;;;;;;51.72;19.92;;;;;;;4.36;100.00;103446.44;5264969;28;20050;-74
2022/01/22 04:37:10;;;;;;;49.35;21.63;;;;;;;4.38;100.00;103449.91;5278307;28;20027;-73
2022/01/22 04:39:41;;;;;;;46.42;19.83;;;;;;;4.41;100.00;103440.94;5264639;28;20110;-74
2022/01/22 04:42:12;;;;;;;50.15;20.88;;;;;;;4.41;100.00;103438.28;5264451;28;20035;-74
2022/01/22 04:44:54;;;;;;;41.53;20.25;;;;;;;4.45;100.00;103442.56;5277988;28;20020;-74
2022/01/22 04:47:34;;;;;;;47.78;21.42;;;;;;;4.50;100.00;103440.56;5266232;28;20421;-74
2022/01/22 04:55:43;;;;;;;52.78;23.90;;;;;;;4.46;100.00;103438.97;5278222;28;20031;-75
2022/01/22 04:58:14;;;;;;;110.78;49.42;;;;;;;4.48;100.00;103441.56;5265139;28;20111;-74
2022/01/22 05:00:46;;;;;;;70.47;32.40;;;;;;;4.46;100.00;103438.97;5264461;28;20103;-74
2022/01/22 05:03:17;;;;;;;65.30;27.48;;;;;;;4.46;100.00;103438.09;5273981;28;20020;-74
2022/01/22 05:05:48;;;;;;;71.93;35.63;;;;;;;4.47;100.00;103432.75;5281303;28;20051;-74
2022/01/22 05:08:18;;;;;;;58.25;28.08;;;;;;;4.47;100.00;103434.50;5263372;28;20447;-74
2022/01/22 05:10:49;;;;;;;55.13;22.48;;;;;;;4.46;100.00;103438.09;5277420;28;20035;-74
2022/01/22 05:13:19;;;;;;;142.82;72.05;;;;;;;4.47;100.00;103432.75;5263674;28;20047;-75
2022/01/22 05:15:50;;;;;;;61.25;28.02;;;;;;;4.48;100.00;103433.59;5269903;28;20030;-75
2022/01/22 05:18:21;;;;;;;75.53;33.95;;;;;;;4.48;100.00;103431.81;5285121;28;20465;-76
2022/01/22 05:21:01;;;;;;;52.50;23.30;;;;;;;4.46;100.00;103430.97;5264250;28;20109;-75
2022/01/22 05:23:32;;;;;;;56.17;24.23;;;;;;;4.47;100.00;103427.41;5263001;28;20481;-75
2022/01/22 05:26:06;;;;;;;59.97;23.58;;;;;;;4.47;100.00;103434.50;5263848;28;20035;-75
2022/01/22 05:39:35;;;;;;;58.80;22.60;;;;;;;4.47;100.00;103429.19;5279255;28;20020;-75
2022/01/22 05:42:09;;;;;;;57.80;23.15;;;;;;;4.45;100.00;103434.56;5275900;28;20404;-75
2022/01/22 05:44:41;;;;;;;54.85;23.63;;;;;;;4.44;100.00;103429.34;5277558;28;20024;-76
2022/01/22 05:47:14;;;;;;;59.63;23.98;;;;;;;4.43;100.00;103443.56;5274620;28;20088;-74
2022/01/22 05:49:44;;;;;;;59.13;23.77;;;;;;;4.42;100.00;103448.00;5284365;28;20034;-74
2022/01/22 05:52:22;;;;;;;59.03;24.55;;;;;;;4.44;100.00;103445.28;5285196;27;20023;-73
2022/01/22 05:55:11;;;;;;;59.83;24.58;;;;;;;4.44;100.00;103454.13;5279390;28;20050;-72
2022/01/22 06:00:31;;;;;;;57.05;24.95;;;;;;;4.45;100.00;103445.22;5272519;28;20064;-72
2022/01/22 06:03:01;;;;;;;58.25;23.50;;;;;;;4.45;100.00;103445.22;5282477;28;20114;-72
2022/01/22 06:05:32;;;;;;;60.80;25.55;;;;;;;4.44;100.00;103443.47;5267306;28;20012;-73
2022/01/22 06:08:03;;;;;;;55.45;24.30;;;;;;;4.48;100.00;103449.56;5272318;28;20365;-72
2022/01/22 06:10:34;;;;;;;68.28;26.95;;;;;;;4.51;100.00;103452.94;5266263;27;20432;-72
2022/01/22 06:15:54;;;;;;;59.20;25.33;;;;;;;4.52;100.00;103451.13;5269040;28;20097;-74
2022/01/22 06:18:25;;;;;;;61.63;24.25;;;;;;;4.52;100.00;103453.78;5277085;28;20122;-72
2022/01/22 06:20:55;;;;;;;66.47;25.42;;;;;;;4.55;100.00;103459.84;5283416;28;20034;-73
2022/01/22 06:23:26;;;;;;;65.13;25.75;;;;;;;4.55;100.00;103461.66;5283638;28;20387;-73
2022/01/22 06:26:00;;;;;;;61.72;24.33;;;;;;;4.56;100.00;103456.25;5283105;28;20020;-74
2022/01/22 06:28:31;;;;;;;71.15;26.95;;;;;;;4.58;100.00;103451.75;5264983;28;20130;-73
2022/01/22 06:31:02;;;;;;;62.03;25.73;;;;;;;4.60;100.00;103457.88;5262225;28;20433;-73
2022/01/22 06:33:32;;;;;;;64.82;24.98;;;;;;;4.61;100.00;103451.59;5262824;28;20107;-73
2022/01/22 06:36:04;;;;;;;63.63;25.40;;;;;;;4.66;100.00;103462.06;5264019;28;20020;-74
2022/01/22 06:38:34;;;;;;;90.50;38.47;;;;;;;4.65;100.00;103460.34;5263680;28;20024;-73
2022/01/22 06:43:53;;;;;;;63.08;26.58;;;;;;;4.66;100.00;103454.94;5273020;28;20102;-74
2022/01/22 06:46:24;;;;;;;60.45;25.33;;;;;;;4.71;100.00;103451.22;5282771;28;20465;-74
2022/01/22 06:48:54;;;;;;;67.15;26.05;;;;;;;4.76;100.00;103459.88;5283476;28;20035;-74
2022/01/22 06:51:27;;;;;;;69.00;26.35;;;;;;;4.79;100.00;103465.94;5273650;27;20080;-74
2022/01/22 06:53:57;;;;;;;63.30;25.70;;;;;;;4.80;100.00;103470.31;5280640;28;20019;-74
2022/01/22 06:56:29;;;;;;;66.95;26.08;;;;;;;4.86;100.00;103464.75;5265316;28;20028;-74
2022/01/22 06:59:00;;;;;;;58.78;24.23;;;;;;;4.84;100.00;103461.28;5278604;28;20529;-73
2022/01/22 07:01:31;;;;;;;72.93;27.73;;;;;;;4.85;100.00;103464.81;5275834;28;20031;-74
2022/01/22 07:04:01;;;;;;;66.32;26.00;;;;;;;4.85;100.00;103462.16;5283158;28;20026;-74
2022/01/22 07:06:32;;;;;;;66.95;26.45;;;;;;;4.86;100.00;103459.41;5274610;28;20024;-74
2022/01/22 07:09:02;;;;;;;65.32;25.23;;;;;;;4.87;100.00;103469.16;5272541;28;20034;-73
2022/01/22 07:11:33;;;;;;;81.32;32.75;;;;;;;4.85;100.00;103471.00;5285565;27;20023;-73
2022/01/22 07:14:04;;;;;;;75.78;28.15;;;;;;;4.86;100.00;103470.06;5272959;28;20040;-74
2022/01/22 07:16:34;;;;;;;66.90;27.33;;;;;;;4.89;100.00;103477.94;5272818;28;20028;-73
2022/01/22 07:19:05;;;;;;;63.90;26.98;;;;;;;4.92;100.00;103484.94;5283792;28;20122;-73
2022/01/22 07:21:37;;;;;;;66.63;24.63;;;;;;;4.97;100.00;103490.03;5284113;28;20385;-73
2022/01/22 07:26:57;;;;;;;62.85;25.55;;;;;;;5.01;100.00;103491.63;5264651;28;20407;-73
2022/01/22 07:29:27;;;;;;;62.15;26.55;;;;;;;5.02;100.00;103499.56;5265795;28;20123;-74
2022/01/22 07:32:01;;;;;;;59.22;24.80;;;;;;;5.07;100.00;103499.34;5278581;28;20077;-73
2022/01/22 07:34:32;;;;;;;70.45;26.65;;;;;;;5.10;100.00;103497.41;5277627;28;20471;-73
2022/01/22 07:37:03;;;;;;;62.50;25.80;;;;;;;5.06;100.00;103500.28;5272199;28;20023;-74
2022/01/22 07:39:34;;;;;;;57.42;24.45;;;;;;;5.10;100.00;103505.41;5281429;28;20084;-73
2022/01/22 07:42:05;;;;;;;63.17;25.80;;;;;;;5.05;100.00;103499.41;5272802;28;20027;-74
2022/01/22 07:44:35;;;;;;;59.75;26.42;;;;;;;5.04;100.00;103502.16;5271155;28;20032;-74
2022/01/22 07:47:06;;;;;;;62.88;26.42;;;;;;;5.02;100.00;103501.34;5265999;28;20019;-73
2022/01/22 07:49:37;;;;;;;64.45;27.10;;;;;;;5.05;100.00;103495.88;5270489;28;20097;-74
2022/01/22 07:52:07;;;;;;;66.70;27.90;;;;;;;5.00;100.00;103496.09;5273339;28;20032;-74
2022/01/22 07:54:38;;;;;;;65.40;25.15;;;;;;;5.00;100.00;103501.41;5278319;28;20020;-74
2022/01/22 07:57:08;;;;;;;61.90;25.88;;;;;;;5.03;100.00;103503.09;5272361;28;20106;-74
2022/01/22 07:59:39;;;;;;;56.00;25.17;;;;;;;5.03;100.00;103503.09;5270981;28;20054;-74
2022/01/22 08:02:10;;;;;;;57.97;24.58;;;;;;;5.06;100.00;103505.59;5270891;28;20043;-74
2022/01/22 08:04:41;;;;;;;68.28;26.70;;;;;;;5.06;100.00;103502.94;5285148;28;20316;-74
2022/01/22 08:07:11;;;;;;;68.28;28.60;;;;;;;5.09;100.00;103510.81;5285112;28;20061;-74
2022/01/22 08:09:44;;;;;;;68.43;26.80;;;;;;;5.05;100.00;103502.06;5285110;28;20494;-74
2022/01/22 08:12:14;;;;;;;78.22;34.60;;;;;;;5.05;100.00;103507.41;5284924;27;20389;-73
2022/01/22 08:14:45;;;;;;;57.97;26.83;;;;;;;5.09;100.00;103503.69;5284773;28;20029;-74
2022/01/22 08:17:15;;;;;;;76.00;27.85;;;;;;;5.08;100.00;103511.72;5270999;28;20030;-74
2022/01/22 08:19:46;;;;;;;72.32;28.55;;;;;;;5.09;100.00;103513.47;5273032;28;20031;-73
2022/01/22 08:22:17;;;;;;;64.90;26.55;;;;;;;5.11;100.00;103506.25;5283696;28;20102;-74
2022/01/22 08:24:47;;;;;;;79.22;29.63;;;;;;;5.14;100.00;103511.47;5285153;28;20027;-74
2022/01/22 08:29:50;;;;;;;70.85;28.75;;;;;;;5.15;100.00;103516.72;5263716;28;20047;-74
2022/01/22 08:37:57;;;;;;;72.55;28.80;;;;;;;5.15;100.00;103530.03;5263165;28;20036;-74
2022/01/22 08:40:27;;;;;;;75.72;28.88;;;;;;;5.14;100.00;103522.97;5263332;28;20384;-74
2022/01/22 08:42:58;;;;;;;78.65;28.90;;;;;;;5.16;100.00;103523.75;5263707;28;20051;-74
2022/01/22 08:45:28;;;;;;;72.90;29.33;;;;;;;5.17;100.00;103519.28;5263222;28;20099;-74
2022/01/22 08:47:59;;;;;;;94.60;31.05;;;;;;;5.19;100.00;103522.78;5281202;28;20114;-73
2022/01/22 08:50:30;;;;;;;85.30;32.38;;;;;;;5.22;100.00;103521.75;5272306;28;20059;-74
2022/01/22 08:53:01;;;;;;;68.82;27.73;;;;;;;5.23;100.00;103526.19;5264491;28;20083;-74
2022/01/22 08:55:32;;;;;;;66.43;27.20;;;;;;;5.25;100.00;103521.66;5275964;28;20077;-74
2022/01/22 08:58:03;;;;;;;73.43;29.08;;;;;;;5.27;100.00;103523.31;5269321;28;20469;-74
2022/01/22 09:00:34;;;;;;;71.85;26.33;;;;;;;5.31;100.00;103524.91;5269459;27;20576;-74
2022/01/22 09:03:06;;;;;;;72.80;30.65;;;;;;;5.33;100.00;103527.50;5271495;28;20059;-73
2022/01/22 09:05:37;;;;;;;71.88;27.38;;;;;;;5.36;100.00;103525.56;5282350;28;20020;-74
2022/01/22 09:08:07;;;;;;;71.65;28.58;;;;;;;5.37;100.00;103535.31;5283918;28;20031;-74
2022/01/22 09:10:38;;;;;;;74.72;27.27;;;;;;;5.42;100.00;103533.31;5266571;28;20028;-73
2022/01/22 09:13:10;;;;;;;70.03;26.30;;;;;;;5.46;100.00;103537.53;5273850;28;20027;-74
2022/01/22 09:15:40;;;;;;;68.20;27.23;;;;;;;5.46;100.00;103534.00;5269721;27;20072;-74
2022/01/22 09:18:11;;;;;;;65.25;26.90;;;;;;;5.48;100.00;103534.81;5284101;28;20028;-73
2022/01/22 09:20:55;;;;;;;71.30;27.27;;;;;;;5.57;100.00;103538.84;5270056;28;20054;-74
2022/01/22 09:23:25;;;;;;;66.25;26.67;;;;;;;5.61;100.00;103538.66;5270126;28;20393;-74
2022/01/22 09:25:56;;;;;;;65.65;26.50;;;;;;;5.61;100.00;103543.13;5273709;28;20024;-74
2022/01/22 09:28:27;;;;;;;62.20;25.90;;;;;;;5.67;100.00;103548.16;5279790;28;20024;-74
2022/01/22 09:30:58;;;;;;;60.28;26.30;;;;;;;5.68;100.00;103548.13;5272589;28;20477;-74
2022/01/22 09:33:28;;;;;;;63.50;25.73;;;;;;;5.68;100.00;103549.91;5275792;28;20028;-74
2022/01/22 09:35:59;;;;;;;61.72;26.95;;;;;;;5.69;100.00;103549.84;5262081;28;20034;-74
2022/01/22 09:38:29;;;;;;;63.55;27.20;;;;;;;5.72;100.00;103557.72;5268684;28;20051;-74
2022/01/22 09:41:00;;;;;;;70.10;27.17;;;;;;;5.78;100.00;103561.91;5283352;28;20028;-74
2022/01/22 09:43:31;;;;;;;56.67;23.75;;;;;;;5.84;100.00;103561.63;5283573;28;20046;-74
2022/01/22 09:46:04;;;;;;;63.13;25.83;;;;;;;5.88;100.00;103560.53;5268197;28;20078;-74
2022/01/22 09:48:40;;;;;;;60.22;25.00;;;;;;;5.84;100.00;103566.06;5272912;28;20043;-74
2022/01/22 09:51:12;;;;;;;72.22;25.20;;;;;;;5.85;100.00;103567.81;5269865;28;20440;-74
2022/01/22 09:53:43;;;;;;;59.58;25.02;;;;;;;5.84;100.00;103577.59;5277934;28;20032;-73
2022/01/22 09:56:20;;;;;;;63.72;24.95;;;;;;;5.89;100.00;103582.72;5283136;28;20028;-74
2022/01/22 09:58:50;;;;;;;49.67;23.77;;;;;;;5.90;100.00;103581.78;5283541;27;20020;-74
2022/01/22 10:01:24;;;;;;;54.40;24.17;;;;;;;5.89;100.00;103588.91;5262296;28;20374;-74
2022/01/22 10:03:57;;;;;;;58.92;23.83;;;;;;;5.89;100.00;103590.72;5262270;28;20056;-74
2022/01/22 10:06:31;;;;;;;60.00;23.65;;;;;;;5.93;100.00;103589.69;5271288;28;20023;-74
2022/01/22 10:12:23;;;;;;;55.95;22.73;;;;;;;5.95;100.00;103583.34;5262507;28;20063;-74
2022/01/22 10:15:34;;;;;;;52.70;24.00;;;;;;;5.95;100.00;103587.78;5274081;28;20111;-74
2022/01/22 10:18:06;;;;;;;51.72;22.48;;;;;;;6.04;100.00;103589.19;5271592;28;20020;-74
2022/01/22 10:20:40;;;;;;;58.67;23.52;;;;;;;6.11;100.00;103601.28;5267812;28;20250;-74
2022/01/22 10:23:21;;;;;;;51.15;22.20;;;;;;;6.11;100.00;103593.28;5283774;28;20019;-74
2022/01/22 10:26:01;;;;;;;55.55;22.73;;;;;;;6.13;100.00;103597.63;5265363;28;20051;-73
2022/01/22 10:28:55;;;;;;;54.83;22.42;;;;;;;6.17;100.00;103601.88;5269971;28;20032;-74
2022/01/22 10:31:41;;;;;;;55.60;22.35;;;;;;;6.18;100.00;103592.94;5273104;28;20028;-74
2022/01/22 10:34:13;;;;;;;49.33;22.88;;;;;;;6.24;100.00;103599.81;5266000;28;20024;-73
2022/01/22 10:36:56;;;;;;;52.05;23.42;;;;;;;6.26;100.00;103597.91;5279296;28;20287;-74
2022/01/22 10:39:27;;;;;;;56.53;23.40;;;;;;;6.34;100.00;103601.09;5265985;28;20028;-74
2022/01/22 10:41:58;;;;;;;58.65;23.23;;;;;;;6.33;100.00;103596.72;5279660;28;20034;-74
2022/01/22 10:44:46;;;;;;;50.50;22.50;;;;;;;6.33;100.00;103595.84;5281119;28;20548;-74
2022/01/22 10:47:32;;;;;;;51.15;21.92;;;;;;;6.33;100.00;103595.84;5276958;28;20027;-73
2022/01/22 10:50:22;;;;;;;51.13;22.67;;;;;;;6.40;100.00;103591.94;5267391;28;20024;-74
2022/01/22 10:52:55;;;;;;;53.03;22.23;;;;;;;6.39;100.00;103596.41;5282517;28;20027;-73
2022/01/22 10:55:25;;;;;;;54.00;24.05;;;;;;;6.35;100.00;103588.63;5278273;28;20030;-73
2022/01/22 10:58:15;;;;;;;53.55;21.95;;;;;;;6.41;100.00;103599.00;5280007;28;20052;-73
2022/01/22 11:00:58;;;;;;;55.22;22.90;;;;;;;6.36;100.00;103598.34;5268217;28;20016;-74
2022/01/22 11:03:29;;;;;;;58.95;23.92;;;;;;;6.39;100.00;103593.75;5274234;28;20028;-74
2022/01/22 11:06:26;;;;;;;56.78;23.60;;;;;;;6.48;100.00;103582.66;5289168;28;20016;-74
2022/01/22 11:08:57;;;;;;;58.22;22.33;;;;;;;6.53;100.00;103589.56;5284459;28;20031;-74
2022/01/22 11:11:29;;;;;;;56.05;22.83;;;;;;;6.59;100.00;103584.81;5274518;28;20024;-74
2022/01/22 11:14:05;;;;;;;54.30;23.17;;;;;;;6.66;100.00;103588.91;5271931;28;20107;-73
2022/01/22 11:16:38;;;;;;;54.08;23.67;;;;;;;6.64;100.00;103584.59;5272672;28;20031;-73
2022/01/22 11:19:10;;;;;;;51.70;22.65;;;;;;;6.65;100.00;103587.16;5285499;28;20027;-74
2022/01/22 11:21:46;;;;;;;51.58;22.83;;;;;;;6.69;100.00;103587.91;5273049;28;20415;-74
2022/01/22 11:24:19;;;;;;;53.15;22.85;;;;;;;6.66;100.00;103577.34;5276207;27;20507;-74
2022/01/22 11:27:06;;;;;;;53.78;23.02;;;;;;;6.68;100.00;103573.69;5264737;28;20432;-74
2022/01/22 11:29:45;;;;;;;58.13;23.30;;;;;;;6.67;100.00;103568.41;5277585;27;20615;-74
2022/01/22 11:32:19;;;;;;;52.70;21.67;;;;;;;6.71;100.00;103565.53;5263774;28;20520;-74
2022/01/22 11:34:55;;;;;;;49.80;22.35;;;;;;;6.69;100.00;103577.22;5280955;28;20028;-74
2022/01/22 11:37:43;;;;;;;50.25;21.73;;;;;;;6.67;100.00;103574.59;5273293;28;20681;-74
2022/01/22 11:40:33;;;;;;;53.22;21.45;;;;;;;6.63;100.00;103583.72;5272417;28;20023;-74
2022/01/22 11:43:08;;;;;;;48.58;22.63;;;;;;;6.57;100.00;103585.81;5284008;28;20077;-73
2022/01/22 11:45:44;;;;;;;54.10;22.58;;;;;;;6.60;100.00;103577.66;5272989;28;20062;-74
2022/01/22 11:48:18;;;;;;;50.10;21.38;;;;;;;6.57;100.00;103577.81;5284157;28;20384;-74
2022/01/22 11:50:52;;;;;;;52.45;22.80;;;;;;;6.59;100.00;103571.47;5267853;27;20234;-74
2022/01/22 11:53:25;;;;;;;58.95;23.00;;;;;;;6.56;100.00;103576.06;5279499;28;20026;-73
2022/01/22 11:56:26;;;;;;;54.45;22.30;;;;;;;6.57;100.00;103578.66;5270205;27;20034;-74
2022/01/22 11:58:58;;;;;;;49.85;22.15;;;;;;;6.60;100.00;103583.00;5270646;28;20016;-74
2022/01/22 12:04:34;;;;;;;52.85;23.23;;;;;;;6.55;100.00;103585.03;5277531;28;20097;-74
2022/01/22 12:07:04;;;;;;;57.58;23.42;;;;;;;6.51;100.00;103575.44;5278100;28;20031;-74
2022/01/22 12:09:50;;;;;;;59.08;23.00;;;;;;;6.48;100.00;103573.78;5284378;28;20531;-74
2022/01/22 12:15:27;;;;;;;51.27;23.03;;;;;;;6.41;100.00;103562.53;5279554;28;20024;-74
2022/01/22 12:18:24;;;;;;;54.75;24.08;;;;;;;6.45;100.00;103560.59;5273172;28;20043;-74
2022/01/22 12:23:41;;;;;;;55.30;24.20;;;;;;;6.42;100.00;103553.59;5270021;28;20054;-74
2022/01/22 12:26:13;;;;;;;58.05;24.40;;;;;;;6.49;100.00;103544.38;5273624;28;20020;-74
2022/01/22 12:28:46;;;;;;;60.13;23.23;;;;;;;6.48;100.00;103547.97;5263671;28;20090;-73
2022/01/22 12:31:19;;;;;;;52.05;22.45;;;;;;;6.51;100.00;103554.09;5275881;28;20065;-73
2022/01/22 12:33:53;;;;;;;60.05;23.35;;;;;;;6.53;100.00;103544.25;5278799;28;20031;-74
2022/01/22 12:36:38;;;;;;;53.92;22.33;;;;;;;6.45;100.00;103540.13;5271810;28;20082;-74
2022/01/22 12:39:16;;;;;;;56.60;22.58;;;;;;;6.53;100.00;103538.91;5271569;28;20340;-74
2022/01/22 12:42:11;;;;;;;54.45;23.35;;;;;;;6.55;100.00;103539.69;5274321;28;20512;-74
2022/01/22 12:44:49;;;;;;;53.40;21.80;;;;;;;6.55;100.00;103539.69;5278056;28;20020;-74
2022/01/22 12:47:21;;;;;;;51.22;23.48;;;;;;;6.51;100.00;103535.44;5279555;27;20023;-74
2022/01/22 12:49:59;;;;;;;45.08;19.23;;;;;;;6.49;100.00;103544.38;5282738;28;20477;-74
2022/01/22 12:52:30;;;;;;;51.88;21.90;;;;;;;6.49;100.00;103549.72;5282874;28;20615;-74
2022/01/22 12:55:15;;;;;;;48.22;21.05;;;;;;;6.60;100.00;103553.66;5279493;28;20382;-74
2022/01/22 12:57:45;;;;;;;41.13;18.83;;;;;;;6.61;100.00;103547.38;5279213;28;20024;-74
2022/01/22 13:00:18;;;;;;;47.35;19.90;;;;;;;6.62;100.00;103555.28;5263085;28;20031;-74
2022/01/22 13:02:55;;;;;;;45.88;18.33;;;;;;;6.66;100.00;103546.22;5277098;28;20027;-74
2022/01/22 13:05:28;;;;;;;45.83;19.30;;;;;;;6.70;100.00;103553.13;5277831;28;20106;-74
2022/01/22 13:08:01;;;;;;;40.33;17.92;;;;;;;6.74;100.00;103553.84;5271681;28;20024;-73
2022/01/22 13:10:43;;;;;;;42.97;18.55;;;;;;;6.72;100.00;103561.03;5265194;28;20031;-74
2022/01/22 13:13:33;;;;;;;48.13;20.08;;;;;;;6.72;100.00;103551.25;5262758;28;20024;-74
2022/01/22 13:16:07;;;;;;;42.83;18.58;;;;;;;6.76;100.00;103549.28;5260377;28;20038;-74
2022/01/22 13:18:56;;;;;;;47.13;22.00;;;;;;;6.77;100.00;103539.47;5279183;28;20016;-74
2022/01/22 13:21:29;;;;;;;47.65;26.10;;;;;;;6.68;100.00;103525.69;5270119;28;20548;-74
2022/01/22 13:24:03;;;;;;;48.45;21.80;;;;;;;6.66;100.00;103537.34;5283383;27;20031;-74
2022/01/22 13:26:59;;;;;;;58.17;26.95;;;;;;;6.65;100.00;103544.50;5282939;28;20070;-74